Portada
METAR-TAF:

METAR-TAF

Aeroports :

El Borma, Tunísia

latitud: 31-41N, longitud: 009-10E, altitud: 258 m

Observació

L'informe es va fer fa 1 hora i 49 minuts, a les 08:00 UTC
Vent 3 kt del Est/Sud-Est
Temperatura 13°C
Humitat 94%
Pressió 1014 hPa
Visibilitat: 0100 m
boira

METAR: DTTR 180800Z 11003KT 0100 FG NSC 13/12 Q1014

Hora: 10:49 (09:49 UTC)


TAF: manca

Observacions i pronòstics meteorològics de més de 4000 aeroports (METAR i TAF).

Les estacions disponibles són els punts grocs i vermells al mapa.

Posi el ratolí al punt desitjat per veure el nom de l'estació.

Feu clic per veure les observacions i els pronòstics meteorològics.

Per canviar el mapa: feu clic els botons verds amb una creu de color negre per apropar; al botó verd amb un guió per allunyar la imatge; o en les fletxes verdes per a mapes adjacents.


METAR-TAF: